sensor_id;sensor_type;location;lat;lon;timestamp;P1;durP1;ratioP1;P2;durP2;ratioP2
64684;SDS011;51109;47.414;18.954;2023-07-20T00:01:23;10.38;;;3.70;;
64684;SDS011;51109;47.414;18.954;2023-07-20T00:03:49;9.88;;;4.75;;
64684;SDS011;51109;47.414;18.954;2023-07-20T00:06:20;10.75;;;4.18;;
64684;SDS011;51109;47.414;18.954;2023-07-20T00:08:53;7.88;;;3.55;;
64684;SDS011;51109;47.414;18.954;2023-07-20T00:11:20;7.20;;;3.80;;
64684;SDS011;51109;47.414;18.954;2023-07-20T00:13:46;7.25;;;3.92;;
64684;SDS011;51109;47.414;18.954;2023-07-20T00:16:12;10.50;;;4.50;;
64684;SDS011;51109;47.414;18.954;2023-07-20T00:18:38;7.03;;;4.05;;
64684;SDS011;51109;47.414;18.954;2023-07-20T00:21:04;6.55;;;3.90;;
64684;SDS011;51109;47.414;18.954;2023-07-20T00:23:30;10.10;;;3.90;;
64684;SDS011;51109;47.414;18.954;2023-07-20T00:25:56;8.63;;;4.07;;
64684;SDS011;51109;47.414;18.954;2023-07-20T00:28:22;5.45;;;3.83;;
64684;SDS011;51109;47.414;18.954;2023-07-20T00:30:48;7.75;;;4.07;;
64684;SDS011;51109;47.414;18.954;2023-07-20T00:33:16;7.05;;;3.53;;
64684;SDS011;51109;47.414;18.954;2023-07-20T00:35:43;4.70;;;3.65;;
64684;SDS011;51109;47.414;18.954;2023-07-20T00:38:09;8.45;;;3.83;;
64684;SDS011;51109;47.414;18.954;2023-07-20T00:40:36;8.55;;;4.60;;
64684;SDS011;51109;47.414;18.954;2023-07-20T00:43:06;11.10;;;4.03;;
64684;SDS011;51109;47.414;18.954;2023-07-20T00:45:32;5.72;;;3.20;;
64684;SDS011;51109;47.414;18.954;2023-07-20T00:47:59;7.85;;;3.83;;
64684;SDS011;51109;47.414;18.954;2023-07-20T00:50:27;6.82;;;3.83;;
64684;SDS011;51109;47.414;18.954;2023-07-20T00:52:54;7.22;;;4.13;;
64684;SDS011;51109;47.414;18.954;2023-07-20T00:55:21;6.70;;;4.13;;
64684;SDS011;51109;47.414;18.954;2023-07-20T00:57:49;7.70;;;4.13;;
64684;SDS011;51109;47.414;18.954;2023-07-20T01:00:15;9.10;;;4.15;;
64684;SDS011;51109;47.414;18.954;2023-07-20T01:02:42;6.00;;;3.90;;
64684;SDS011;51109;47.414;18.954;2023-07-20T01:05:08;8.40;;;3.97;;
64684;SDS011;51109;47.414;18.954;2023-07-20T01:07:35;8.32;;;4.18;;
64684;SDS011;51109;47.414;18.954;2023-07-20T01:12:42;7.82;;;3.53;;
64684;SDS011;51109;47.414;18.954;2023-07-20T01:15:12;5.50;;;3.88;;
64684;SDS011;51109;47.414;18.954;2023-07-20T01:17:38;7.40;;;3.97;;
64684;SDS011;51109;47.414;18.954;2023-07-20T01:20:08;7.63;;;3.80;;
64684;SDS011;51109;47.414;18.954;2023-07-20T01:31:28;10.82;;;3.95;;
64684;SDS011;51109;47.414;18.954;2023-07-20T01:33:57;4.80;;;3.63;;
64684;SDS011;51109;47.414;18.954;2023-07-20T01:36:26;10.27;;;4.40;;
64684;SDS011;51109;47.414;18.954;2023-07-20T01:38:54;7.22;;;4.18;;
64684;SDS011;51109;47.414;18.954;2023-07-20T01:41:21;5.80;;;3.70;;
64684;SDS011;51109;47.414;18.954;2023-07-20T01:43:47;5.22;;;4.03;;
64684;SDS011;51109;47.414;18.954;2023-07-20T01:46:13;7.50;;;3.70;;
64684;SDS011;51109;47.414;18.954;2023-07-20T01:48:39;6.82;;;3.72;;
64684;SDS011;51109;47.414;18.954;2023-07-20T01:51:05;6.18;;;3.70;;
64684;SDS011;51109;47.414;18.954;2023-07-20T01:53:31;6.07;;;3.90;;
64684;SDS011;51109;47.414;18.954;2023-07-20T01:55:58;6.78;;;4.00;;
64684;SDS011;51109;47.414;18.954;2023-07-20T01:58:24;6.95;;;3.83;;
64684;SDS011;51109;47.414;18.954;2023-07-20T02:00:50;7.35;;;3.47;;
64684;SDS011;51109;47.414;18.954;2023-07-20T02:03:16;5.38;;;3.67;;
64684;SDS011;51109;47.414;18.954;2023-07-20T02:05:42;8.98;;;3.75;;
64684;SDS011;51109;47.414;18.954;2023-07-20T02:08:08;7.80;;;3.90;;
64684;SDS011;51109;47.414;18.954;2023-07-20T02:10:35;8.20;;;3.58;;
64684;SDS011;51109;47.414;18.954;2023-07-20T02:13:01;9.20;;;3.78;;
64684;SDS011;51109;47.414;18.954;2023-07-20T02:15:27;6.28;;;3.60;;
64684;SDS011;51109;47.414;18.954;2023-07-20T02:17:53;5.68;;;4.13;;
64684;SDS011;51109;47.414;18.954;2023-07-20T02:20:19;6.78;;;4.30;;
64684;SDS011;51109;47.414;18.954;2023-07-20T02:22:46;7.95;;;4.13;;
64684;SDS011;51109;47.414;18.954;2023-07-20T02:25:12;6.15;;;3.67;;
64684;SDS011;51109;47.414;18.954;2023-07-20T02:27:38;6.32;;;4.10;;
64684;SDS011;51109;47.414;18.954;2023-07-20T02:30:04;5.72;;;3.75;;
64684;SDS011;51109;47.414;18.954;2023-07-20T02:32:32;6.78;;;3.85;;
64684;SDS011;51109;47.414;18.954;2023-07-20T02:34:59;6.15;;;3.88;;
64684;SDS011;51109;47.414;18.954;2023-07-20T02:37:25;7.07;;;3.80;;
64684;SDS011;51109;47.414;18.954;2023-07-20T02:39:51;5.63;;;4.22;;
64684;SDS011;51109;47.414;18.954;2023-07-20T02:42:17;8.38;;;4.35;;
64684;SDS011;51109;47.414;18.954;2023-07-20T02:44:43;7.88;;;4.47;;
64684;SDS011;51109;47.414;18.954;2023-07-20T02:47:09;5.32;;;3.97;;
64684;SDS011;51109;47.414;18.954;2023-07-20T02:49:35;8.10;;;4.05;;
64684;SDS011;51109;47.414;18.954;2023-07-20T02:52:01;6.50;;;3.92;;
64684;SDS011;51109;47.414;18.954;2023-07-20T02:54:29;10.68;;;4.32;;
64684;SDS011;51109;47.414;18.954;2023-07-20T02:56:56;8.05;;;3.97;;
64684;SDS011;51109;47.414;18.954;2023-07-20T02:59:22;7.72;;;4.53;;
64684;SDS011;51109;47.414;18.954;2023-07-20T03:01:48;7.50;;;4.18;;
64684;SDS011;51109;47.414;18.954;2023-07-20T03:04:14;6.53;;;4.05;;
64684;SDS011;51109;47.414;18.954;2023-07-20T03:06:41;7.30;;;3.70;;
64684;SDS011;51109;47.414;18.954;2023-07-20T03:09:07;6.05;;;4.15;;
64684;SDS011;51109;47.414;18.954;2023-07-20T03:11:34;8.43;;;3.60;;
64684;SDS011;51109;47.414;18.954;2023-07-20T03:14:00;6.50;;;4.05;;
64684;SDS011;51109;47.414;18.954;2023-07-20T03:16:26;9.45;;;4.28;;
64684;SDS011;51109;47.414;18.954;2023-07-20T03:18:52;11.20;;;4.22;;
64684;SDS011;51109;47.414;18.954;2023-07-20T03:21:18;9.65;;;4.05;;
64684;SDS011;51109;47.414;18.954;2023-07-20T03:23:44;9.15;;;4.10;;
64684;SDS011;51109;47.414;18.954;2023-07-20T03:26:10;10.02;;;4.80;;
64684;SDS011;51109;47.414;18.954;2023-07-20T03:28:37;7.07;;;4.15;;
64684;SDS011;51109;47.414;18.954;2023-07-20T03:31:04;8.77;;;5.57;;
64684;SDS011;51109;47.414;18.954;2023-07-20T03:33:30;9.38;;;4.13;;
64684;SDS011;51109;47.414;18.954;2023-07-20T03:35:57;7.80;;;4.45;;
64684;SDS011;51109;47.414;18.954;2023-07-20T03:38:23;5.18;;;4.07;;
64684;SDS011;51109;47.414;18.954;2023-07-20T03:40:53;5.20;;;4.38;;
64684;SDS011;51109;47.414;18.954;2023-07-20T03:43:24;4.65;;;3.80;;
64684;SDS011;51109;47.414;18.954;2023-07-20T03:45:51;9.50;;;4.22;;
64684;SDS011;51109;47.414;18.954;2023-07-20T03:48:21;5.07;;;3.58;;
64684;SDS011;51109;47.414;18.954;2023-07-20T03:50:48;10.02;;;3.97;;
64684;SDS011;51109;47.414;18.954;2023-07-20T03:53:15;7.05;;;3.95;;
64684;SDS011;51109;47.414;18.954;2023-07-20T03:55:44;5.95;;;3.55;;
64684;SDS011;51109;47.414;18.954;2023-07-20T03:58:12;6.60;;;3.88;;
64684;SDS011;51109;47.414;18.954;2023-07-20T04:00:39;10.27;;;4.47;;
64684;SDS011;51109;47.414;18.954;2023-07-20T04:03:05;7.20;;;4.07;;
64684;SDS011;51109;47.414;18.954;2023-07-20T04:05:31;7.20;;;3.90;;
64684;SDS011;51109;47.414;18.954;2023-07-20T04:07:58;7.35;;;3.42;;
64684;SDS011;51109;47.414;18.954;2023-07-20T04:10:24;6.47;;;3.85;;
64684;SDS011;51109;47.414;18.954;2023-07-20T04:12:49;7.00;;;3.75;;
64684;SDS011;51109;47.414;18.954;2023-07-20T04:15:15;5.32;;;3.85;;
64684;SDS011;51109;47.414;18.954;2023-07-20T04:17:41;5.82;;;3.70;;
64684;SDS011;51109;47.414;18.954;2023-07-20T04:20:07;6.95;;;3.80;;
64684;SDS011;51109;47.414;18.954;2023-07-20T04:22:34;5.00;;;3.60;;
64684;SDS011;51109;47.414;18.954;2023-07-20T04:25:00;4.78;;;4.28;;
64684;SDS011;51109;47.414;18.954;2023-07-20T04:27:26;4.95;;;3.70;;
64684;SDS011;51109;47.414;18.954;2023-07-20T04:29:52;5.07;;;3.70;;
64684;SDS011;51109;47.414;18.954;2023-07-20T04:32:18;6.88;;;4.10;;
64684;SDS011;51109;47.414;18.954;2023-07-20T04:34:44;4.78;;;3.58;;
64684;SDS011;51109;47.414;18.954;2023-07-20T04:37:10;8.55;;;3.78;;
64684;SDS011;51109;47.414;18.954;2023-07-20T04:39:36;10.32;;;4.00;;
64684;SDS011;51109;47.414;18.954;2023-07-20T04:42:02;5.75;;;3.85;;
64684;SDS011;51109;47.414;18.954;2023-07-20T04:44:28;5.07;;;3.90;;
64684;SDS011;51109;47.414;18.954;2023-07-20T04:46:54;6.82;;;3.47;;
64684;SDS011;51109;47.414;18.954;2023-07-20T04:49:20;6.57;;;3.35;;
64684;SDS011;51109;47.414;18.954;2023-07-20T04:51:46;4.15;;;3.30;;
64684;SDS011;51109;47.414;18.954;2023-07-20T04:54:12;6.93;;;3.45;;
64684;SDS011;51109;47.414;18.954;2023-07-20T04:56:38;5.53;;;3.80;;
64684;SDS011;51109;47.414;18.954;2023-07-20T04:59:04;7.82;;;3.45;;
64684;SDS011;51109;47.414;18.954;2023-07-20T05:01:30;5.32;;;3.50;;
64684;SDS011;51109;47.414;18.954;2023-07-20T05:03:56;7.00;;;4.00;;
64684;SDS011;51109;47.414;18.954;2023-07-20T05:06:22;4.63;;;3.70;;
64684;SDS011;51109;47.414;18.954;2023-07-20T05:08:48;14.88;;;3.80;;
64684;SDS011;51109;47.414;18.954;2023-07-20T05:11:14;5.93;;;3.78;;
64684;SDS011;51109;47.414;18.954;2023-07-20T05:13:40;8.63;;;4.20;;
64684;SDS011;51109;47.414;18.954;2023-07-20T05:16:06;4.68;;;3.65;;
64684;SDS011;51109;47.414;18.954;2023-07-20T05:18:32;6.45;;;3.60;;
64684;SDS011;51109;47.414;18.954;2023-07-20T05:20:58;6.72;;;4.03;;
64684;SDS011;51109;47.414;18.954;2023-07-20T05:23:24;10.63;;;4.05;;
64684;SDS011;51109;47.414;18.954;2023-07-20T05:25:57;11.63;;;4.30;;
64684;SDS011;51109;47.414;18.954;2023-07-20T05:28:24;6.57;;;3.85;;
64684;SDS011;51109;47.414;18.954;2023-07-20T05:30:50;7.68;;;3.85;;
64684;SDS011;51109;47.414;18.954;2023-07-20T05:33:20;6.57;;;3.72;;
64684;SDS011;51109;47.414;18.954;2023-07-20T05:35:46;7.57;;;4.50;;
64684;SDS011;51109;47.414;18.954;2023-07-20T05:38:12;5.85;;;3.90;;
64684;SDS011;51109;47.414;18.954;2023-07-20T05:40:42;6.85;;;4.00;;
64684;SDS011;51109;47.414;18.954;2023-07-20T05:43:09;7.15;;;3.75;;
64684;SDS011;51109;47.414;18.954;2023-07-20T05:45:35;5.47;;;4.00;;
64684;SDS011;51109;47.414;18.954;2023-07-20T05:48:01;7.85;;;4.07;;
64684;SDS011;51109;47.414;18.954;2023-07-20T05:50:28;7.43;;;4.22;;
64684;SDS011;51109;47.414;18.954;2023-07-20T05:52:54;6.60;;;4.60;;
64684;SDS011;51109;47.414;18.954;2023-07-20T05:55:20;7.93;;;3.92;;
64684;SDS011;51109;47.414;18.954;2023-07-20T05:57:46;7.00;;;3.78;;
64684;SDS011;51109;47.414;18.954;2023-07-20T06:00:13;7.57;;;4.60;;
64684;SDS011;51109;47.414;18.954;2023-07-20T06:02:39;8.88;;;4.30;;
64684;SDS011;51109;47.414;18.954;2023-07-20T06:05:06;7.65;;;4.53;;
64684;SDS011;51109;47.414;18.954;2023-07-20T06:07:36;9.55;;;4.97;;
64684;SDS011;51109;47.414;18.954;2023-07-20T06:10:02;8.82;;;4.43;;
64684;SDS011;51109;47.414;18.954;2023-07-20T06:12:28;10.50;;;5.07;;
64684;SDS011;51109;47.414;18.954;2023-07-20T06:14:54;7.10;;;4.13;;
64684;SDS011;51109;47.414;18.954;2023-07-20T06:17:20;9.90;;;4.25;;
64684;SDS011;51109;47.414;18.954;2023-07-20T06:19:46;7.18;;;4.22;;
64684;SDS011;51109;47.414;18.954;2023-07-20T06:22:12;7.53;;;4.28;;
64684;SDS011;51109;47.414;18.954;2023-07-20T06:24:38;8.15;;;4.05;;
64684;SDS011;51109;47.414;18.954;2023-07-20T06:27:04;6.60;;;4.50;;
64684;SDS011;51109;47.414;18.954;2023-07-20T06:29:31;6.38;;;4.13;;
64684;SDS011;51109;47.414;18.954;2023-07-20T06:31:57;8.20;;;4.53;;
64684;SDS011;51109;47.414;18.954;2023-07-20T06:34:23;20.67;;;5.25;;
64684;SDS011;51109;47.414;18.954;2023-07-20T06:36:49;7.75;;;4.65;;
64684;SDS011;51109;47.414;18.954;2023-07-20T06:39:14;8.10;;;4.85;;
64684;SDS011;51109;47.414;18.954;2023-07-20T06:41:40;10.85;;;4.32;;
64684;SDS011;51109;47.414;18.954;2023-07-20T06:44:06;7.97;;;4.53;;
64684;SDS011;51109;47.414;18.954;2023-07-20T06:46:33;6.97;;;4.30;;
64684;SDS011;51109;47.414;18.954;2023-07-20T06:48:59;7.88;;;3.67;;
64684;SDS011;51109;47.414;18.954;2023-07-20T06:51:25;10.18;;;4.35;;
64684;SDS011;51109;47.414;18.954;2023-07-20T06:53:50;8.43;;;4.35;;
64684;SDS011;51109;47.414;18.954;2023-07-20T06:56:16;10.15;;;4.20;;
64684;SDS011;51109;47.414;18.954;2023-07-20T06:58:42;11.75;;;4.55;;
64684;SDS011;51109;47.414;18.954;2023-07-20T07:01:08;9.23;;;4.35;;
64684;SDS011;51109;47.414;18.954;2023-07-20T07:03:34;10.48;;;4.40;;
64684;SDS011;51109;47.414;18.954;2023-07-20T07:06:02;13.38;;;4.30;;
64684;SDS011;51109;47.414;18.954;2023-07-20T07:08:28;8.68;;;4.40;;
64684;SDS011;51109;47.414;18.954;2023-07-20T07:10:54;10.93;;;3.55;;
64684;SDS011;51109;47.414;18.954;2023-07-20T07:13:20;4.43;;;3.65;;
64684;SDS011;51109;47.414;18.954;2023-07-20T07:15:46;8.80;;;3.25;;
64684;SDS011;51109;47.414;18.954;2023-07-20T07:18:12;4.95;;;3.60;;
64684;SDS011;51109;47.414;18.954;2023-07-20T07:20:38;6.85;;;3.30;;
64684;SDS011;51109;47.414;18.954;2023-07-20T07:23:04;11.55;;;3.33;;
64684;SDS011;51109;47.414;18.954;2023-07-20T07:25:30;5.22;;;3.15;;
64684;SDS011;51109;47.414;18.954;2023-07-20T07:27:57;5.47;;;3.78;;
64684;SDS011;51109;47.414;18.954;2023-07-20T07:30:23;4.43;;;3.60;;
64684;SDS011;51109;47.414;18.954;2023-07-20T07:32:49;7.78;;;3.63;;
64684;SDS011;51109;47.414;18.954;2023-07-20T07:35:15;8.63;;;3.80;;
64684;SDS011;51109;47.414;18.954;2023-07-20T07:37:41;12.85;;;3.70;;
64684;SDS011;51109;47.414;18.954;2023-07-20T07:40:07;6.93;;;3.25;;
64684;SDS011;51109;47.414;18.954;2023-07-20T07:42:33;5.50;;;3.63;;
64684;SDS011;51109;47.414;18.954;2023-07-20T07:44:59;10.90;;;3.60;;
64684;SDS011;51109;47.414;18.954;2023-07-20T07:47:25;7.72;;;3.70;;
64684;SDS011;51109;47.414;18.954;2023-07-20T07:49:51;10.45;;;3.63;;
64684;SDS011;51109;47.414;18.954;2023-07-20T07:52:17;12.73;;;3.83;;
64684;SDS011;51109;47.414;18.954;2023-07-20T07:54:43;10.18;;;3.83;;
64684;SDS011;51109;47.414;18.954;2023-07-20T07:57:09;10.20;;;3.13;;
64684;SDS011;51109;47.414;18.954;2023-07-20T07:59:35;8.52;;;4.07;;
64684;SDS011;51109;47.414;18.954;2023-07-20T08:02:04;6.18;;;3.50;;
64684;SDS011;51109;47.414;18.954;2023-07-20T08:04:31;5.13;;;3.33;;
64684;SDS011;51109;47.414;18.954;2023-07-20T08:06:57;4.53;;;3.35;;
64684;SDS011;51109;47.414;18.954;2023-07-20T08:09:24;4.00;;;3.20;;
64684;SDS011;51109;47.414;18.954;2023-07-20T08:11:50;5.85;;;3.40;;
64684;SDS011;51109;47.414;18.954;2023-07-20T08:14:16;4.25;;;3.10;;
64684;SDS011;51109;47.414;18.954;2023-07-20T08:16:42;6.03;;;3.75;;
64684;SDS011;51109;47.414;18.954;2023-07-20T08:19:09;5.88;;;3.10;;
64684;SDS011;51109;47.414;18.954;2023-07-20T08:21:35;12.50;;;3.47;;
64684;SDS011;51109;47.414;18.954;2023-07-20T08:24:00;8.48;;;3.17;;
64684;SDS011;51109;47.414;18.954;2023-07-20T08:26:26;8.00;;;3.53;;
64684;SDS011;51109;47.414;18.954;2023-07-20T08:28:52;7.90;;;3.70;;
64684;SDS011;51109;47.414;18.954;2023-07-20T08:31:19;15.90;;;5.53;;
64684;SDS011;51109;47.414;18.954;2023-07-20T08:33:45;6.97;;;3.33;;
64684;SDS011;51109;47.414;18.954;2023-07-20T08:36:11;6.88;;;3.13;;
64684;SDS011;51109;47.414;18.954;2023-07-20T08:38:37;7.13;;;3.58;;
64684;SDS011;51109;47.414;18.954;2023-07-20T08:41:03;9.13;;;3.30;;
64684;SDS011;51109;47.414;18.954;2023-07-20T08:43:29;12.80;;;3.83;;
64684;SDS011;51109;47.414;18.954;2023-07-20T08:45:56;11.57;;;2.97;;
64684;SDS011;51109;47.414;18.954;2023-07-20T08:48:23;6.32;;;3.03;;
64684;SDS011;51109;47.414;18.954;2023-07-20T08:50:52;6.88;;;3.08;;
64684;SDS011;51109;47.414;18.954;2023-07-20T08:53:22;5.57;;;3.33;;
64684;SDS011;51109;47.414;18.954;2023-07-20T08:55:50;10.35;;;3.10;;
64684;SDS011;51109;47.414;18.954;2023-07-20T08:58:18;5.93;;;2.65;;
64684;SDS011;51109;47.414;18.954;2023-07-20T09:00:44;14.07;;;3.22;;
64684;SDS011;51109;47.414;18.954;2023-07-20T09:03:11;7.82;;;3.20;;
64684;SDS011;51109;47.414;18.954;2023-07-20T09:05:37;7.22;;;2.90;;
64684;SDS011;51109;47.414;18.954;2023-07-20T09:08:05;6.60;;;3.10;;
64684;SDS011;51109;47.414;18.954;2023-07-20T09:10:31;10.50;;;3.55;;
64684;SDS011;51109;47.414;18.954;2023-07-20T09:12:57;4.88;;;2.85;;
64684;SDS011;51109;47.414;18.954;2023-07-20T09:15:23;5.78;;;2.55;;
64684;SDS011;51109;47.414;18.954;2023-07-20T09:17:49;5.07;;;2.53;;
64684;SDS011;51109;47.414;18.954;2023-07-20T09:20:17;3.67;;;2.67;;
64684;SDS011;51109;47.414;18.954;2023-07-20T09:22:43;4.78;;;2.90;;
64684;SDS011;51109;47.414;18.954;2023-07-20T09:25:11;6.88;;;2.63;;
64684;SDS011;51109;47.414;18.954;2023-07-20T09:27:37;6.70;;;2.78;;
64684;SDS011;51109;47.414;18.954;2023-07-20T09:30:05;5.85;;;2.90;;
64684;SDS011;51109;47.414;18.954;2023-07-20T09:32:40;8.20;;;2.92;;
64684;SDS011;51109;47.414;18.954;2023-07-20T09:35:15;4.03;;;2.53;;
64684;SDS011;51109;47.414;18.954;2023-07-20T09:37:59;5.78;;;3.10;;
64684;SDS011;51109;47.414;18.954;2023-07-20T09:40:26;7.63;;;2.92;;
64684;SDS011;51109;47.414;18.954;2023-07-20T09:42:54;6.35;;;3.25;;
64684;SDS011;51109;47.414;18.954;2023-07-20T09:45:29;3.90;;;2.67;;
64684;SDS011;51109;47.414;18.954;2023-07-20T09:48:07;3.42;;;2.90;;
64684;SDS011;51109;47.414;18.954;2023-07-20T09:50:41;3.80;;;2.50;;
64684;SDS011;51109;47.414;18.954;2023-07-20T09:53:09;7.47;;;4.10;;
64684;SDS011;51109;47.414;18.954;2023-07-20T09:55:40;8.95;;;2.80;;
64684;SDS011;51109;47.414;18.954;2023-07-20T09:58:08;5.93;;;2.70;;
64684;SDS011;51109;47.414;18.954;2023-07-20T10:00:36;5.22;;;2.95;;
64684;SDS011;51109;47.414;18.954;2023-07-20T10:03:06;4.93;;;2.92;;
64684;SDS011;51109;47.414;18.954;2023-07-20T10:05:32;6.35;;;3.00;;
64684;SDS011;51109;47.414;18.954;2023-07-20T10:08:01;4.38;;;2.60;;
64684;SDS011;51109;47.414;18.954;2023-07-20T10:10:28;5.60;;;2.33;;
64684;SDS011;51109;47.414;18.954;2023-07-20T10:12:55;9.18;;;2.70;;
64684;SDS011;51109;47.414;18.954;2023-07-20T10:15:24;6.78;;;2.70;;
64684;SDS011;51109;47.414;18.954;2023-07-20T10:18:09;7.45;;;2.80;;
64684;SDS011;51109;47.414;18.954;2023-07-20T10:20:46;3.95;;;2.45;;
64684;SDS011;51109;47.414;18.954;2023-07-20T10:23:14;7.93;;;3.25;;
64684;SDS011;51109;47.414;18.954;2023-07-20T10:25:40;4.80;;;2.80;;
64684;SDS011;51109;47.414;18.954;2023-07-20T10:28:08;3.38;;;2.88;;
64684;SDS011;51109;47.414;18.954;2023-07-20T10:30:36;6.35;;;3.03;;
64684;SDS011;51109;47.414;18.954;2023-07-20T10:33:03;5.07;;;2.75;;
64684;SDS011;51109;47.414;18.954;2023-07-20T10:35:30;4.57;;;2.83;;
64684;SDS011;51109;47.414;18.954;2023-07-20T10:38:15;5.05;;;2.67;;
64684;SDS011;51109;47.414;18.954;2023-07-20T10:40:41;6.57;;;2.33;;
64684;SDS011;51109;47.414;18.954;2023-07-20T10:43:07;7.22;;;2.67;;
64684;SDS011;51109;47.414;18.954;2023-07-20T10:45:35;6.80;;;2.80;;
64684;SDS011;51109;47.414;18.954;2023-07-20T10:48:08;3.25;;;2.50;;
64684;SDS011;51109;47.414;18.954;2023-07-20T10:50:40;6.55;;;3.22;;
64684;SDS011;51109;47.414;18.954;2023-07-20T10:55:38;5.13;;;3.15;;
64684;SDS011;51109;47.414;18.954;2023-07-20T10:58:08;4.50;;;2.67;;
64684;SDS011;51109;47.414;18.954;2023-07-20T11:00:58;3.72;;;2.70;;
64684;SDS011;51109;47.414;18.954;2023-07-20T11:03:26;7.35;;;2.85;;
64684;SDS011;51109;47.414;18.954;2023-07-20T11:05:57;3.65;;;2.40;;
64684;SDS011;51109;47.414;18.954;2023-07-20T11:08:39;4.78;;;2.40;;
64684;SDS011;51109;47.414;18.954;2023-07-20T11:11:26;5.28;;;2.70;;
64684;SDS011;51109;47.414;18.954;2023-07-20T11:13:54;4.38;;;2.50;;
64684;SDS011;51109;47.414;18.954;2023-07-20T11:16:33;8.90;;;2.72;;
64684;SDS011;51109;47.414;18.954;2023-07-20T11:21:51;5.38;;;2.50;;
64684;SDS011;51109;47.414;18.954;2023-07-20T11:24:24;7.30;;;2.83;;
64684;SDS011;51109;47.414;18.954;2023-07-20T11:26:50;5.10;;;3.35;;
64684;SDS011;51109;47.414;18.954;2023-07-20T11:29:18;5.72;;;2.72;;
64684;SDS011;51109;47.414;18.954;2023-07-20T11:31:45;4.13;;;2.60;;
64684;SDS011;51109;47.414;18.954;2023-07-20T11:34:21;3.92;;;2.45;;
64684;SDS011;51109;47.414;18.954;2023-07-20T11:36:49;9.68;;;2.75;;
64684;SDS011;51109;47.414;18.954;2023-07-20T11:39:16;5.32;;;2.95;;
64684;SDS011;51109;47.414;18.954;2023-07-20T11:41:46;3.42;;;2.03;;
64684;SDS011;51109;47.414;18.954;2023-07-20T11:44:13;7.00;;;2.83;;
64684;SDS011;51109;47.414;18.954;2023-07-20T11:46:43;5.28;;;2.33;;
64684;SDS011;51109;47.414;18.954;2023-07-20T11:49:10;6.88;;;2.67;;
64684;SDS011;51109;47.414;18.954;2023-07-20T11:51:37;2.88;;;2.10;;
64684;SDS011;51109;47.414;18.954;2023-07-20T11:54:08;3.53;;;2.30;;
64684;SDS011;51109;47.414;18.954;2023-07-20T11:56:35;5.88;;;2.42;;
64684;SDS011;51109;47.414;18.954;2023-07-20T11:59:01;6.40;;;2.65;;
64684;SDS011;51109;47.414;18.954;2023-07-20T12:01:28;8.65;;;2.60;;
64684;SDS011;51109;47.414;18.954;2023-07-20T12:03:57;3.65;;;2.60;;
64684;SDS011;51109;47.414;18.954;2023-07-20T12:06:24;3.42;;;2.38;;
64684;SDS011;51109;47.414;18.954;2023-07-20T12:08:54;5.32;;;2.28;;
64684;SDS011;51109;47.414;18.954;2023-07-20T12:11:34;6.30;;;2.30;;
64684;SDS011;51109;47.414;18.954;2023-07-20T12:14:01;5.13;;;2.22;;
64684;SDS011;51109;47.414;18.954;2023-07-20T12:16:37;2.33;;;2.00;;
64684;SDS011;51109;47.414;18.954;2023-07-20T12:19:07;3.58;;;2.40;;
64684;SDS011;51109;47.414;18.954;2023-07-20T12:21:35;2.85;;;2.35;;
64684;SDS011;51109;47.414;18.954;2023-07-20T12:24:02;3.08;;;2.22;;
64684;SDS011;51109;47.414;18.954;2023-07-20T12:26:29;4.30;;;2.20;;
64684;SDS011;51109;47.414;18.954;2023-07-20T12:28:56;11.43;;;2.03;;
64684;SDS011;51109;47.414;18.954;2023-07-20T12:31:23;3.53;;;2.50;;
64684;SDS011;51109;47.414;18.954;2023-07-20T12:33:50;3.58;;;2.35;;
64684;SDS011;51109;47.414;18.954;2023-07-20T12:36:17;4.35;;;2.53;;
64684;SDS011;51109;47.414;18.954;2023-07-20T12:38:43;3.35;;;2.30;;
64684;SDS011;51109;47.414;18.954;2023-07-20T12:41:10;7.03;;;2.22;;
64684;SDS011;51109;47.414;18.954;2023-07-20T12:43:46;3.25;;;2.60;;
64684;SDS011;51109;47.414;18.954;2023-07-20T12:46:12;4.32;;;2.40;;
64684;SDS011;51109;47.414;18.954;2023-07-20T12:48:38;3.38;;;2.50;;
64684;SDS011;51109;47.414;18.954;2023-07-20T12:51:07;5.60;;;2.20;;
64684;SDS011;51109;47.414;18.954;2023-07-20T12:53:33;3.80;;;2.50;;
64684;SDS011;51109;47.414;18.954;2023-07-20T12:56:00;4.95;;;2.85;;
64684;SDS011;51109;47.414;18.954;2023-07-20T12:58:26;7.30;;;2.40;;
64684;SDS011;51109;47.414;18.954;2023-07-20T13:00:52;8.30;;;2.30;;
64684;SDS011;51109;47.414;18.954;2023-07-20T13:03:19;5.13;;;2.45;;
64684;SDS011;51109;47.414;18.954;2023-07-20T13:05:45;4.13;;;2.50;;
64684;SDS011;51109;47.414;18.954;2023-07-20T13:08:12;3.50;;;2.17;;
64684;SDS011;51109;47.414;18.954;2023-07-20T13:10:38;4.35;;;2.05;;
64684;SDS011;51109;47.414;18.954;2023-07-20T13:13:04;3.03;;;2.28;;
64684;SDS011;51109;47.414;18.954;2023-07-20T13:15:32;3.28;;;1.80;;
64684;SDS011;51109;47.414;18.954;2023-07-20T13:18:05;7.22;;;1.90;;
64684;SDS011;51109;47.414;18.954;2023-07-20T13:20:31;11.02;;;2.00;;
64684;SDS011;51109;47.414;18.954;2023-07-20T13:22:57;3.30;;;1.90;;
64684;SDS011;51109;47.414;18.954;2023-07-20T13:25:24;5.63;;;2.30;;
64684;SDS011;51109;47.414;18.954;2023-07-20T13:27:50;2.83;;;2.00;;
64684;SDS011;51109;47.414;18.954;2023-07-20T13:30:16;3.95;;;1.92;;
64684;SDS011;51109;47.414;18.954;2023-07-20T13:32:42;6.45;;;2.22;;
64684;SDS011;51109;47.414;18.954;2023-07-20T13:35:10;1.88;;;1.73;;
64684;SDS011;51109;47.414;18.954;2023-07-20T13:37:36;3.85;;;2.20;;
64684;SDS011;51109;47.414;18.954;2023-07-20T13:40:02;2.92;;;2.03;;
64684;SDS011;51109;47.414;18.954;2023-07-20T13:42:31;2.40;;;2.20;;
64684;SDS011;51109;47.414;18.954;2023-07-20T13:44:57;3.50;;;2.20;;
64684;SDS011;51109;47.414;18.954;2023-07-20T13:47:23;6.10;;;2.40;;
64684;SDS011;51109;47.414;18.954;2023-07-20T13:49:49;4.57;;;2.33;;
64684;SDS011;51109;47.414;18.954;2023-07-20T13:52:15;2.30;;;2.08;;
64684;SDS011;51109;47.414;18.954;2023-07-20T13:54:41;2.42;;;1.80;;
64684;SDS011;51109;47.414;18.954;2023-07-20T13:57:07;4.97;;;2.10;;
64684;SDS011;51109;47.414;18.954;2023-07-20T13:59:33;3.45;;;1.75;;
64684;SDS011;51109;47.414;18.954;2023-07-20T14:01:59;4.75;;;1.80;;
64684;SDS011;51109;47.414;18.954;2023-07-20T14:04:25;3.22;;;1.90;;
64684;SDS011;51109;47.414;18.954;2023-07-20T14:06:51;3.72;;;1.80;;
64684;SDS011;51109;47.414;18.954;2023-07-20T14:09:17;3.75;;;2.08;;
64684;SDS011;51109;47.414;18.954;2023-07-20T14:11:43;4.05;;;2.10;;
64684;SDS011;51109;47.414;18.954;2023-07-20T14:14:09;2.20;;;1.95;;
64684;SDS011;51109;47.414;18.954;2023-07-20T14:16:35;4.40;;;2.15;;
64684;SDS011;51109;47.414;18.954;2023-07-20T14:19:01;5.00;;;2.00;;
64684;SDS011;51109;47.414;18.954;2023-07-20T14:21:27;2.83;;;1.92;;
64684;SDS011;51109;47.414;18.954;2023-07-20T14:23:54;4.68;;;1.92;;
64684;SDS011;51109;47.414;18.954;2023-07-20T14:26:19;4.95;;;2.40;;
64684;SDS011;51109;47.414;18.954;2023-07-20T14:28:46;4.65;;;2.08;;
64684;SDS011;51109;47.414;18.954;2023-07-20T14:31:12;5.47;;;1.80;;
64684;SDS011;51109;47.414;18.954;2023-07-20T14:33:38;2.70;;;2.00;;
64684;SDS011;51109;47.414;18.954;2023-07-20T14:36:04;3.28;;;2.97;;
64684;SDS011;51109;47.414;18.954;2023-07-20T14:38:31;2.28;;;2.08;;
64684;SDS011;51109;47.414;18.954;2023-07-20T14:40:58;5.25;;;2.35;;
64684;SDS011;51109;47.414;18.954;2023-07-20T14:43:24;4.32;;;2.10;;
64684;SDS011;51109;47.414;18.954;2023-07-20T14:45:50;3.80;;;1.83;;
64684;SDS011;51109;47.414;18.954;2023-07-20T14:48:17;5.57;;;2.08;;
64684;SDS011;51109;47.414;18.954;2023-07-20T14:50:43;2.40;;;2.17;;